Lyons, Kansas
Current Conditions -  °F | °C
As of 11:52 PM on Saturday 22 Nov 2014 (Local Time) from KHUT Reporting Station
Overcast Overcast  
Wind Chill: 54°   Ceiling: 600
Heat Index: 54°   Visibility: 7mi
Dew Point: 51°   Wind: 14mph
Humidity: 90%   Direction: 190°S
Pressure: 29.61"   Gusts: NA
Location:  38.35°N, 98.2°W
Report Text: KHUT 230552Z AUTO 19012KT 7SM OVC006 12/11 A2961 RMK AO2 SLP016 T01220106 10144 20117 401500050 58017
Loading
Personal Weather Stations






























Interactive Weather Map New forecast layout! Learn more

10-Day Weather Forecast

Advertisements
Track Severe Weather on mobile